Time;durP1;ratioP1;P1;durP2;ratioP2;P2;SDS_P1;SDS_P2;PMS_P1;PMS_P2;Temp;Humidity;BMP_temperature;BMP_pressure;BME280_temperature;BME280_humidity;BME280_pressure;Samples;Min_cycle;Max_cycle;Signal;HPM_P1;HPM_P2
2022/03/17 00:02:03;;;;;;;17.40;13.33;;;9.50;99.90;;;;;;5032268;28;20497;-76
2022/03/17 00:04:30;;;;;;;16.57;13.37;;;9.50;99.90;;;;;;5032250;28;20506;-73
2022/03/17 00:06:59;;;;;;;16.87;13.30;;;9.60;99.90;;;;;;5032116;28;20465;-75
2022/03/17 00:09:26;;;;;;;14.93;13.17;;;9.70;99.90;;;;;;5032070;28;20486;-76
2022/03/17 00:11:54;;;;;;;16.53;12.40;;;9.80;99.90;;;;;;5031975;28;20955;-75
2022/03/17 00:14:21;;;;;;;15.63;12.33;;;9.80;99.90;;;;;;5031969;28;20927;-78
2022/03/17 00:16:49;;;;;;;18.17;14.37;;;9.80;99.90;;;;;;5032195;28;20454;-77
2022/03/17 00:19:16;;;;;;;17.50;12.93;;;9.90;99.90;;;;;;5032166;28;20470;-76
2022/03/17 00:21:43;;;;;;;17.37;12.43;;;9.90;99.90;;;;;;5030783;28;20458;-77
2022/03/17 00:24:12;;;;;;;15.10;13.60;;;9.90;99.90;;;;;;5031403;28;20466;-74
2022/03/17 00:26:39;;;;;;;22.87;14.97;;;9.90;99.90;;;;;;5031954;28;20815;-75
2022/03/17 00:29:07;;;;;;;19.10;14.13;;;10.00;99.90;;;;;;5031811;28;20921;-75
2022/03/17 00:31:37;;;;;;;18.80;15.37;;;9.90;99.90;;;;;;5031801;28;20529;-76
2022/03/17 00:34:05;;;;;;;19.50;15.33;;;10.10;99.90;;;;;;5032238;28;20780;-74
2022/03/17 00:36:34;;;;;;;18.77;15.17;;;10.10;99.90;;;;;;5031284;28;21026;-73
2022/03/17 00:39:01;;;;;;;18.40;15.20;;;10.10;99.90;;;;;;5031904;28;20855;-73
2022/03/17 00:41:30;;;;;;;19.50;15.33;;;10.10;99.90;;;;;;5031214;28;20447;-76
2022/03/17 00:43:57;;;;;;;20.87;16.37;;;10.10;99.90;;;;;;5031802;28;20466;-75
2022/03/17 00:46:24;;;;;;;17.97;14.60;;;10.20;99.90;;;;;;5031479;28;20994;-74
2022/03/17 00:48:51;;;;;;;19.40;13.23;;;10.40;99.90;;;;;;5031558;28;20789;-77
2022/03/17 00:51:18;;;;;;;16.33;13.43;;;10.50;99.90;;;;;;5030944;28;20979;-74
2022/03/17 00:53:46;;;;;;;20.73;14.07;;;10.50;99.90;;;;;;5031055;28;20459;-75
2022/03/17 00:56:13;;;;;;;20.30;15.20;;;10.50;99.90;;;;;;5031061;28;20994;-75
2022/03/17 00:58:45;;;;;;;22.63;16.20;;;10.40;99.90;;;;;;5031503;28;20454;-76
2022/03/17 01:01:13;;;;;;;22.00;15.80;;;10.30;99.90;;;;;;5030979;28;20462;-75
2022/03/17 01:03:40;;;;;;;18.70;15.77;;;10.00;99.90;;;;;;5031259;28;20461;-77
2022/03/17 01:06:07;;;;;;;19.00;15.40;;;9.70;99.90;;;;;;5031261;28;20458;-75
2022/03/17 01:08:35;;;;;;;23.57;17.50;;;9.70;99.90;;;;;;5031101;28;20458;-75
2022/03/17 01:11:02;;;;;;;18.20;14.80;;;9.50;99.90;;;;;;5031089;28;20491;-75
2022/03/17 01:13:29;;;;;;;20.07;15.10;;;9.40;99.90;;;;;;5031199;28;20794;-76
2022/03/17 01:15:57;;;;;;;16.93;13.57;;;9.30;99.90;;;;;;5030926;28;20455;-77
2022/03/17 01:18:25;;;;;;;19.90;14.80;;;9.20;99.90;;;;;;5030814;28;20455;-76
2022/03/17 01:20:52;;;;;;;18.80;14.47;;;9.20;99.90;;;;;;5030790;28;20924;-77
2022/03/17 01:23:19;;;;;;;19.40;14.20;;;9.10;99.90;;;;;;5031388;28;20451;-74
2022/03/17 01:25:46;;;;;;;16.47;13.80;;;9.10;99.90;;;;;;5031120;28;20494;-76
2022/03/17 01:28:13;;;;;;;15.30;12.90;;;9.00;99.90;;;;;;5031199;28;20475;-76
2022/03/17 01:30:40;;;;;;;17.80;10.97;;;9.10;99.90;;;;;;5030795;28;20491;-77
2022/03/17 01:33:09;;;;;;;17.13;13.20;;;9.20;99.90;;;;;;5030878;28;20455;-73
2022/03/17 01:35:36;;;;;;;16.03;12.27;;;9.10;99.90;;;;;;5030906;28;20466;-75
2022/03/17 01:38:03;;;;;;;18.57;13.10;;;9.10;99.90;;;;;;5030991;28;20819;-76
2022/03/17 01:40:30;;;;;;;15.83;12.10;;;9.30;99.90;;;;;;5030437;28;20443;-74
2022/03/17 01:42:57;;;;;;;18.70;13.43;;;9.20;99.90;;;;;;5030571;28;20466;-74
2022/03/17 01:45:26;;;;;;;18.40;12.37;;;9.20;99.90;;;;;;5030515;28;20478;-78
2022/03/17 01:47:53;;;;;;;18.37;13.87;;;9.30;99.90;;;;;;5030044;28;20995;-74
2022/03/17 01:50:22;;;;;;;18.90;13.30;;;9.30;99.90;;;;;;5030104;28;20525;-75
2022/03/17 01:52:49;;;;;;;19.00;13.90;;;9.30;99.90;;;;;;5030307;28;20473;-75
2022/03/17 01:55:18;;;;;;;18.43;13.57;;;9.30;99.90;;;;;;5030669;28;20455;-76
2022/03/17 01:57:46;;;;;;;19.57;15.47;;;9.30;99.90;;;;;;5030348;28;20475;-74
2022/03/17 02:00:17;;;;;;;17.50;14.13;;;9.20;99.90;;;;;;5030141;28;20450;-74
2022/03/17 02:02:45;;;;;;;15.77;12.90;;;9.20;99.90;;;;;;5030130;28;20924;-75
2022/03/17 02:05:12;;;;;;;17.60;12.30;;;8.70;99.90;;;;;;5030268;28;20464;-76
2022/03/17 02:07:44;;;;;;;19.40;13.00;;;8.70;99.90;;;;;;5030116;28;20839;-77
2022/03/17 02:10:11;;;;;;;17.40;12.20;;;8.70;99.90;;;;;;5029801;28;20485;-74
2022/03/17 02:15:23;;;;;;;18.80;13.67;;;8.40;99.90;;;;;;5029984;28;21002;-76
2022/03/17 02:17:50;;;;;;;15.07;12.93;;;8.40;99.90;;;;;;5029996;28;20467;-75
2022/03/17 02:20:17;;;;;;;15.07;12.10;;;8.50;99.90;;;;;;5030031;28;20455;-75
2022/03/17 02:22:47;;;;;;;15.90;12.10;;;8.60;99.90;;;;;;5030086;28;20451;-74
2022/03/17 02:25:34;;;;;;;14.10;11.30;;;8.80;99.90;;;;;;5029954;28;20490;-77
2022/03/17 02:28:02;;;;;;;15.20;12.17;;;8.80;99.90;;;;;;5029961;28;20474;-77
2022/03/17 02:30:30;;;;;;;15.80;13.10;;;8.90;99.90;;;;;;5029831;28;20820;-75
2022/03/17 02:33:03;;;;;;;17.17;11.70;;;9.00;99.90;;;;;;5029763;28;20454;-75
2022/03/17 02:35:32;;;;;;;14.07;11.53;;;9.00;99.90;;;;;;5029470;28;20458;-75
2022/03/17 02:38:02;;;;;;;14.23;11.47;;;9.00;99.90;;;;;;5029567;28;20882;-73
2022/03/17 02:40:30;;;;;;;12.00;10.17;;;9.10;99.90;;;;;;5029627;28;20458;-73
2022/03/17 02:42:58;;;;;;;13.97;9.93;;;9.10;99.90;;;;;;5029715;28;20458;-73
2022/03/17 02:45:26;;;;;;;13.90;9.40;;;9.20;99.90;;;;;;5029188;28;20458;-76
2022/03/17 02:47:53;;;;;;;8.80;7.17;;;9.20;99.90;;;;;;5029464;28;20794;-75
2022/03/17 02:50:20;;;;;;;8.70;6.93;;;9.10;99.90;;;;;;5029199;28;21025;-76
2022/03/17 02:52:48;;;;;;;8.40;6.83;;;9.20;99.90;;;;;;5029447;28;20931;-77
2022/03/17 02:55:15;;;;;;;7.50;5.90;;;9.20;99.90;;;;;;5029641;28;20466;-76
2022/03/17 02:57:45;;;;;;;8.43;6.30;;;9.30;99.90;;;;;;5029570;28;20890;-74
2022/03/17 03:00:14;;;;;;;8.23;6.07;;;9.50;99.90;;;;;;5029458;28;20463;-77
2022/03/17 03:02:44;;;;;;;7.90;5.07;;;9.40;99.90;;;;;;5029086;28;20512;-77
2022/03/17 03:05:11;;;;;;;8.40;6.20;;;9.40;99.90;;;;;;5028683;28;20924;-75
2022/03/17 03:07:38;;;;;;;9.17;6.43;;;9.40;99.90;;;;;;5029154;28;20494;-77
2022/03/17 03:10:07;;;;;;;8.07;6.20;;;9.40;99.90;;;;;;5029202;28;20856;-78
2022/03/17 03:12:34;;;;;;;7.50;6.50;;;9.30;99.90;;;;;;5029318;28;20513;-77
2022/03/17 03:15:02;;;;;;;8.77;6.90;;;9.30;99.90;;;;;;5029289;28;20507;-76
2022/03/17 03:17:30;;;;;;;8.83;6.83;;;9.20;99.90;;;;;;5028902;28;20481;-77
2022/03/17 03:19:57;;;;;;;10.70;6.63;;;9.30;99.90;;;;;;5029239;28;20439;-75
2022/03/17 03:22:28;;;;;;;9.00;6.30;;;9.20;99.90;;;;;;5029409;28;20970;-75
2022/03/17 03:24:57;;;;;;;7.80;5.67;;;9.20;99.90;;;;;;5029009;28;21023;-78
2022/03/17 03:27:27;;;;;;;10.50;7.90;;;9.10;99.90;;;;;;5029209;28;20566;-78
2022/03/17 03:29:55;;;;;;;8.20;6.20;;;8.80;99.90;;;;;;5029183;28;20550;-72
2022/03/17 03:32:24;;;;;;;9.53;7.27;;;8.80;99.90;;;;;;5029072;28;20483;-74
2022/03/17 03:34:52;;;;;;;10.10;7.77;;;8.80;99.90;;;;;;5029205;28;20459;-75
2022/03/17 03:37:25;;;;;;;10.93;7.97;;;8.70;99.90;;;;;;5029129;28;20479;-73
2022/03/17 03:39:54;;;;;;;11.37;8.20;;;8.70;99.90;;;;;;5028991;28;20936;-77
2022/03/17 03:42:21;;;;;;;11.60;8.87;;;8.70;99.90;;;;;;5028718;28;20446;-74
2022/03/17 03:44:51;;;;;;;11.50;8.13;;;8.80;99.90;;;;;;5028784;28;20451;-77
2022/03/17 03:47:19;;;;;;;12.47;8.27;;;8.70;99.90;;;;;;5028961;28;20998;-75
2022/03/17 03:49:47;;;;;;;14.03;8.83;;;8.60;99.90;;;;;;5029184;28;20459;-74
2022/03/17 03:52:15;;;;;;;11.37;8.93;;;8.70;99.90;;;;;;5029094;28;20487;-76
2022/03/17 03:54:45;;;;;;;11.83;8.73;;;8.70;99.90;;;;;;5028909;28;20863;-77
2022/03/17 03:57:12;;;;;;;13.00;9.70;;;8.70;99.90;;;;;;5030987;28;20588;-75
2022/03/17 03:59:39;;;;;;;11.80;9.27;;;8.60;99.90;;;;;;5032474;28;20470;-75
2022/03/17 04:02:08;;;;;;;12.70;9.73;;;8.50;99.90;;;;;;5032408;28;20455;-75
2022/03/17 04:04:36;;;;;;;12.10;10.17;;;8.50;99.90;;;;;;5032464;28;20461;-75
2022/03/17 04:07:08;;;;;;;12.00;9.73;;;8.30;99.90;;;;;;5032223;28;20466;-75
2022/03/17 04:09:39;;;;;;;15.60;9.40;;;8.20;99.90;;;;;;5032512;28;20490;-75
2022/03/17 04:12:08;;;;;;;14.33;11.13;;;8.20;99.90;;;;;;5032483;28;20545;-74
2022/03/17 04:14:35;;;;;;;15.90;11.53;;;8.00;99.90;;;;;;5032640;28;20461;-74
2022/03/17 04:17:04;;;;;;;13.50;10.13;;;8.10;99.90;;;;;;5032500;28;20450;-75
2022/03/17 04:19:31;;;;;;;14.03;10.27;;;8.10;99.90;;;;;;5032380;28;20494;-74
2022/03/17 04:21:59;;;;;;;14.17;10.60;;;8.20;99.90;;;;;;5032025;28;20830;-75
2022/03/17 04:24:27;;;;;;;14.00;10.40;;;8.20;99.90;;;;;;5031859;28;20490;-76
2022/03/17 04:26:54;;;;;;;14.30;11.30;;;8.20;99.90;;;;;;5032093;28;20537;-77
2022/03/17 04:29:22;;;;;;;14.23;10.30;;;8.20;99.90;;;;;;5032220;28;20974;-74
2022/03/17 04:31:49;;;;;;;13.07;10.17;;;8.20;99.90;;;;;;5031524;28;21006;-75
2022/03/17 04:34:16;;;;;;;16.67;10.77;;;8.20;99.90;;;;;;5031929;28;20461;-76
2022/03/17 04:36:43;;;;;;;15.80;11.40;;;8.30;99.90;;;;;;5031600;28;20450;-77
2022/03/17 04:39:11;;;;;;;13.87;10.00;;;8.20;99.90;;;;;;5031476;28;20483;-77
2022/03/17 04:41:40;;;;;;;12.37;9.40;;;8.20;99.90;;;;;;5031813;28;20566;-76
2022/03/17 04:44:08;;;;;;;11.80;10.00;;;8.10;99.90;;;;;;5031788;28;20850;-76
2022/03/17 04:46:35;;;;;;;12.27;9.10;;;8.20;99.90;;;;;;5031652;28;20454;-75
2022/03/17 04:49:03;;;;;;;10.80;8.30;;;8.30;99.90;;;;;;5031293;28;20466;-76
2022/03/17 04:51:31;;;;;;;12.73;9.23;;;8.30;99.90;;;;;;5031528;28;20533;-76
2022/03/17 04:53:58;;;;;;;13.23;9.90;;;8.20;99.90;;;;;;5031581;28;20524;-76
2022/03/17 04:56:25;;;;;;;11.03;9.27;;;8.10;99.90;;;;;;5013841;28;20483;-74
2022/03/17 04:58:54;;;;;;;12.70;9.40;;;8.20;99.90;;;;;;5031419;28;20470;-76
2022/03/17 05:01:21;;;;;;;13.83;10.37;;;8.20;99.90;;;;;;5031587;28;20451;-75
2022/03/17 05:03:48;;;;;;;14.70;10.13;;;8.30;99.90;;;;;;5030859;28;20459;-77
2022/03/17 05:06:16;;;;;;;13.20;8.83;;;8.20;99.90;;;;;;5031443;28;20454;-74
2022/03/17 05:08:44;;;;;;;13.20;8.97;;;8.10;99.90;;;;;;5031082;28;20478;-77
2022/03/17 05:11:13;;;;;;;10.90;8.40;;;8.10;99.90;;;;;;5031292;28;20586;-76
2022/03/17 05:13:41;;;;;;;10.50;8.80;;;8.10;99.90;;;;;;5013314;28;20550;-77
2022/03/17 05:16:09;;;;;;;10.37;8.40;;;8.10;99.90;;;;;;5031115;28;20462;-75
2022/03/17 05:18:37;;;;;;;11.90;8.17;;;8.20;99.90;;;;;;5031091;28;20554;-75
2022/03/17 05:21:04;;;;;;;9.70;7.13;;;8.10;99.90;;;;;;5031115;28;20462;-76
2022/03/17 05:23:33;;;;;;;10.00;7.23;;;8.10;99.90;;;;;;5031008;28;20454;-71
2022/03/17 05:26:01;;;;;;;12.00;8.70;;;8.10;99.90;;;;;;5030379;28;20494;-77
2022/03/17 05:28:28;;;;;;;10.87;7.83;;;8.00;99.90;;;;;;5030619;28;20483;-75
2022/03/17 05:30:55;;;;;;;8.90;6.40;;;8.00;99.90;;;;;;5030304;28;20455;-76
2022/03/17 05:33:24;;;;;;;8.70;6.50;;;7.90;99.90;;;;;;5030711;28;20465;-75
2022/03/17 05:35:51;;;;;;;9.30;7.10;;;8.00;99.90;;;;;;5030530;28;20455;-75
2022/03/17 05:38:19;;;;;;;9.77;6.70;;;7.90;99.90;;;;;;5029972;28;20494;-77
2022/03/17 05:40:46;;;;;;;10.30;6.43;;;7.90;99.90;;;;;;5030894;28;20465;-77
2022/03/17 05:43:14;;;;;;;12.70;8.10;;;8.00;99.90;;;;;;5030524;28;20451;-76
2022/03/17 05:45:43;;;;;;;9.27;7.10;;;8.00;99.90;;;;;;5030541;28;20459;-75
2022/03/17 05:48:10;;;;;;;9.37;6.70;;;7.90;99.90;;;;;;5030838;28;20558;-76
2022/03/17 05:50:42;;;;;;;8.60;5.67;;;7.90;99.90;;;;;;5030701;28;20454;-75
2022/03/17 05:53:10;;;;;;;8.40;6.03;;;7.80;99.90;;;;;;5030417;28;20513;-73
2022/03/17 05:55:37;;;;;;;9.57;6.60;;;7.80;99.90;;;;;;5029971;28;20457;-72
2022/03/17 05:58:05;;;;;;;10.47;6.30;;;7.80;99.90;;;;;;5029956;28;20975;-72
2022/03/17 06:00:35;;;;;;;9.27;5.93;;;7.70;99.90;;;;;;5030189;28;20459;-72
2022/03/17 06:03:04;;;;;;;6.40;4.80;;;7.70;99.90;;;;;;5030243;28;20936;-70
2022/03/17 06:05:31;;;;;;;8.97;5.57;;;7.90;99.90;;;;;;5030518;28;20465;-70
2022/03/17 06:08:01;;;;;;;8.97;5.97;;;8.00;99.90;;;;;;5030118;28;20482;-71
2022/03/17 06:10:29;;;;;;;7.67;5.30;;;7.80;99.90;;;;;;5030149;28;20930;-73
2022/03/17 06:12:57;;;;;;;9.60;6.10;;;7.80;99.90;;;;;;5029809;28;20487;-71
2022/03/17 06:15:25;;;;;;;7.63;5.57;;;7.80;99.90;;;;;;5030055;28;20931;-73
2022/03/17 06:17:56;;;;;;;8.07;5.30;;;7.90;99.90;;;;;;5029807;28;20529;-70
2022/03/17 06:20:25;;;;;;;10.77;5.80;;;8.20;99.90;;;;;;5029384;28;20455;-70
2022/03/17 06:22:53;;;;;;;7.03;5.00;;;8.00;99.90;;;;;;5029949;28;20470;-74
2022/03/17 06:25:23;;;;;;;6.80;5.13;;;8.00;99.90;;;;;;5029880;28;20494;-78
2022/03/17 06:27:51;;;;;;;7.37;5.03;;;7.80;99.90;;;;;;5029935;28;20483;-73
2022/03/17 06:30:20;;;;;;;7.90;4.63;;;7.80;99.90;;;;;;5029885;28;20971;-70
2022/03/17 06:32:47;;;;;;;8.20;5.60;;;7.90;99.90;;;;;;5029701;28;20490;-71
2022/03/17 06:35:17;;;;;;;7.80;5.20;;;7.80;99.90;;;;;;5029244;28;20488;-74
2022/03/17 06:37:45;;;;;;;9.07;5.80;;;7.70;99.90;;;;;;5029104;28;20518;-74
2022/03/17 06:40:13;;;;;;;6.67;4.83;;;7.90;99.90;;;;;;5029566;28;20461;-76
2022/03/17 06:42:42;;;;;;;8.10;5.30;;;7.90;99.90;;;;;;5029697;28;20450;-76
2022/03/17 06:45:10;;;;;;;6.60;4.80;;;8.00;99.90;;;;;;5029512;28;20454;-75
2022/03/17 06:47:37;;;;;;;8.70;6.13;;;8.00;99.90;;;;;;5029529;28;20482;-74
2022/03/17 06:50:05;;;;;;;7.77;4.37;;;8.10;99.90;;;;;;5029228;28;20458;-73
2022/03/17 06:52:32;;;;;;;7.03;5.07;;;8.10;99.90;;;;;;5029390;28;20501;-74
2022/03/17 06:54:59;;;;;;;6.90;4.70;;;8.10;99.90;;;;;;5029714;28;20466;-75
2022/03/17 06:57:26;;;;;;;7.63;5.20;;;8.10;99.90;;;;;;5030362;28;20478;-72
2022/03/17 06:59:55;;;;;;;8.40;5.40;;;8.00;99.90;;;;;;5029073;28;20459;-76
2022/03/17 07:02:22;;;;;;;9.33;4.70;;;7.90;99.90;;;;;;5029931;28;20458;-76
2022/03/17 07:04:49;;;;;;;8.70;5.60;;;7.90;99.90;;;;;;5030006;28;20458;-74
2022/03/17 07:07:17;;;;;;;8.93;6.93;;;7.90;99.90;;;;;;5029360;28;20462;-71
2022/03/17 07:09:44;;;;;;;10.93;6.00;;;7.70;99.90;;;;;;5029671;28;20439;-80
2022/03/17 07:12:11;;;;;;;9.30;5.40;;;7.70;99.90;;;;;;5029623;28;20501;-78
2022/03/17 07:14:39;;;;;;;8.73;5.80;;;7.70;99.90;;;;;;5030114;28;20462;-78
2022/03/17 07:17:08;;;;;;;8.40;5.67;;;7.80;99.90;;;;;;5029540;28;20573;-76
2022/03/17 07:19:35;;;;;;;9.70;7.43;;;7.80;99.90;;;;;;5029186;28;20486;-73
2022/03/17 07:22:03;;;;;;;12.80;6.97;;;7.70;99.90;;;;;;5029506;28;20473;-78
2022/03/17 07:24:30;;;;;;;9.70;6.77;;;7.60;99.90;;;;;;5028592;28;20494;-79
2022/03/17 07:26:58;;;;;;;10.40;7.50;;;7.60;99.90;;;;;;5029216;28;20990;-74
2022/03/17 07:29:25;;;;;;;10.53;7.30;;;7.70;99.90;;;;;;5029528;28;20490;-72
2022/03/17 07:31:56;;;;;;;9.37;7.40;;;7.60;99.90;;;;;;5032379;28;20502;-77
2022/03/17 07:34:25;;;;;;;11.97;8.30;;;7.50;99.90;;;;;;5032794;28;20932;-75
2022/03/17 07:36:52;;;;;;;11.37;8.10;;;7.60;99.90;;;;;;5032631;28;20862;-76
2022/03/17 07:39:19;;;;;;;9.03;7.10;;;7.70;99.90;;;;;;5034031;28;21038;-70
2022/03/17 07:41:48;;;;;;;11.07;7.53;;;7.70;99.90;;;;;;5039304;28;20462;-75
2022/03/17 07:44:15;;;;;;;9.60;7.47;;;7.70;99.90;;;;;;5032503;28;20465;-76
2022/03/17 07:46:42;;;;;;;10.00;8.10;;;7.80;99.90;;;;;;5052551;28;20485;-73
2022/03/17 07:49:09;;;;;;;9.20;7.23;;;7.80;99.90;;;;;;5052514;28;20473;-74
2022/03/17 07:51:39;;;;;;;11.93;8.57;;;7.90;99.90;;;;;;5056687;28;20461;-74
2022/03/17 07:54:07;;;;;;;12.80;8.50;;;7.80;99.90;;;;;;5072515;28;20869;-74
2022/03/17 07:56:35;;;;;;;11.73;9.47;;;7.80;99.90;;;;;;5071925;28;20518;-72
2022/03/17 07:59:03;;;;;;;11.63;8.97;;;7.90;99.90;;;;;;5072033;28;20472;-72
2022/03/17 08:01:30;;;;;;;12.67;11.10;;;7.80;99.90;;;;;;5072017;28;20461;-75
2022/03/17 08:03:57;;;;;;;12.80;10.27;;;8.00;99.90;;;;;;5072243;28;20461;-75
2022/03/17 08:06:25;;;;;;;12.93;9.70;;;7.60;99.90;;;;;;5072331;28;20849;-73
2022/03/17 08:08:55;;;;;;;14.63;10.33;;;7.70;99.90;;;;;;5071923;28;21140;-74
2022/03/17 08:11:23;;;;;;;10.13;8.93;;;7.90;99.90;;;;;;5072128;28;20445;-72
2022/03/17 08:13:50;;;;;;;9.70;8.63;;;7.90;99.90;;;;;;5071483;28;21188;-71
2022/03/17 08:16:17;;;;;;;12.03;9.30;;;7.90;99.90;;;;;;5067987;28;20533;-72
2022/03/17 08:18:44;;;;;;;14.13;9.47;;;7.90;99.90;;;;;;5051977;28;20490;-69
2022/03/17 08:21:13;;;;;;;13.60;9.13;;;8.00;99.90;;;;;;5051920;28;20458;-71
2022/03/17 08:23:40;;;;;;;12.57;10.20;;;7.80;99.90;;;;;;5051232;28;20763;-73
2022/03/17 08:26:08;;;;;;;11.00;9.40;;;7.90;99.90;;;;;;5051484;28;20497;-72
2022/03/17 08:28:36;;;;;;;12.00;10.10;;;7.90;99.90;;;;;;5051788;28;20469;-72
2022/03/17 08:31:03;;;;;;;13.30;10.10;;;7.80;99.90;;;;;;5051655;28;20863;-72
2022/03/17 08:33:30;;;;;;;12.60;10.63;;;7.80;99.90;;;;;;5051143;28;21134;-73
2022/03/17 08:35:57;;;;;;;12.20;9.83;;;7.70;99.90;;;;;;5051328;28;20460;-71
2022/03/17 08:38:24;;;;;;;13.63;10.83;;;7.70;99.90;;;;;;5051231;28;21009;-78
2022/03/17 08:40:51;;;;;;;14.17;10.27;;;7.80;99.90;;;;;;5033723;28;20467;-72
2022/03/17 08:43:20;;;;;;;14.30;10.27;;;8.00;99.90;;;;;;5030711;28;20462;-73
2022/03/17 08:51:16;;;;;;;13.33;9.87;;;8.30;99.90;;;;;;5031428;28;20453;-71
2022/03/17 08:53:43;;;;;;;14.73;10.63;;;8.40;99.90;;;;;;5031233;28;20493;-69
2022/03/17 08:56:10;;;;;;;14.03;10.80;;;8.30;99.90;;;;;;5031283;28;20542;-70
2022/03/17 08:58:39;;;;;;;14.50;10.40;;;8.20;99.90;;;;;;5030816;28;20479;-71
2022/03/17 09:01:06;;;;;;;17.13;12.00;;;8.40;99.90;;;;;;5030794;28;20469;-71
2022/03/17 09:03:34;;;;;;;19.57;16.50;;;8.50;99.90;;;;;;5030792;28;20447;-70
2022/03/17 09:06:01;;;;;;;13.63;12.10;;;8.60;99.90;;;;;;5030935;28;20802;-70
2022/03/17 09:08:29;;;;;;;18.60;14.73;;;8.60;99.90;;;;;;5030970;28;20529;-72
2022/03/17 09:10:56;;;;;;;21.53;17.03;;;8.40;99.90;;;;;;5031227;28;20447;-72
2022/03/17 09:13:25;;;;;;;14.57;12.37;;;8.40;99.90;;;;;;5031025;28;20489;-68
2022/03/17 09:15:55;;;;;;;16.93;12.87;;;8.50;99.90;;;;;;5030596;28;21070;-70
2022/03/17 09:18:22;;;;;;;17.07;12.30;;;8.70;99.90;;;;;;5030804;28;20831;-69
2022/03/17 09:20:50;;;;;;;17.13;12.60;;;8.80;99.90;;;;;;5030795;28;20781;-75
2022/03/17 09:23:17;;;;;;;14.73;11.80;;;8.90;99.90;;;;;;5030482;28;20442;-76
2022/03/17 09:25:45;;;;;;;16.30;12.73;;;8.90;99.90;;;;;;5029904;28;20554;-74
2022/03/17 09:28:13;;;;;;;16.70;13.20;;;9.00;99.90;;;;;;5030465;28;20471;-77
2022/03/17 09:30:41;;;;;;;14.83;13.23;;;9.00;99.90;;;;;;5030402;28;20455;-77
2022/03/17 09:33:09;;;;;;;13.67;12.17;;;9.00;99.90;;;;;;5030648;28;21283;-78
2022/03/17 09:35:36;;;;;;;13.97;12.03;;;9.10;99.90;;;;;;5030645;28;20461;-76
2022/03/17 09:38:05;;;;;;;14.87;11.30;;;9.00;99.90;;;;;;5030283;28;20565;-77
2022/03/17 09:40:33;;;;;;;15.43;13.33;;;9.00;99.90;;;;;;5030171;28;20462;-75
2022/03/17 09:45:46;;;;;;;16.60;12.40;;;8.50;99.90;;;;;;5029604;28;20435;-77
2022/03/17 09:48:15;;;;;;;18.50;13.37;;;8.70;99.90;;;;;;5028864;28;20515;-77
2022/03/17 09:50:43;;;;;;;31.60;23.80;;;8.80;99.90;;;;;;5029875;28;20446;-75
2022/03/17 09:53:11;;;;;;;15.20;13.60;;;9.00;99.90;;;;;;5029294;28;20498;-78
2022/03/17 09:55:41;;;;;;;18.17;13.60;;;9.10;99.90;;;;;;5029651;28;20777;-78
2022/03/17 09:58:08;;;;;;;16.37;12.00;;;8.60;99.90;;;;;;5030134;28;20479;-77
2022/03/17 10:00:50;;;;;;;10.53;9.43;;;8.60;99.90;;;;;;5029894;28;20454;-76
2022/03/17 10:03:21;;;;;;;10.37;7.90;;;8.60;99.90;;;;;;5030181;28;20458;-77
2022/03/17 10:05:50;;;;;;;9.03;7.37;;;8.70;99.90;;;;;;5030099;28;20466;-78
2022/03/17 10:08:20;;;;;;;12.47;8.40;;;8.90;99.90;;;;;;5029639;28;20486;-79
2022/03/17 10:10:48;;;;;;;11.20;8.27;;;8.70;99.90;;;;;;5029594;28;20937;-78
2022/03/17 10:13:17;;;;;;;10.30;8.10;;;8.90;99.90;;;;;;5029834;28;20539;-76
2022/03/17 10:15:46;;;;;;;11.40;9.40;;;9.00;99.90;;;;;;5029928;28;20545;-76
2022/03/17 10:18:24;;;;;;;13.87;9.77;;;9.00;99.90;;;;;;5029859;28;20475;-77
2022/03/17 10:21:07;;;;;;;14.87;10.93;;;8.70;99.90;;;;;;5029758;28;20818;-76
2022/03/17 10:23:35;;;;;;;13.83;10.50;;;8.70;99.90;;;;;;5027876;28;20450;-77
2022/03/17 10:26:02;;;;;;;10.97;8.80;;;8.80;99.90;;;;;;5029672;28;20999;-76
2022/03/17 10:28:32;;;;;;;12.43;9.87;;;8.90;99.90;;;;;;5029651;28;20497;-75
2022/03/17 10:31:04;;;;;;;12.83;10.40;;;8.80;99.90;;;;;;5029663;28;20512;-77
2022/03/17 10:33:33;;;;;;;11.10;9.90;;;8.90;99.90;;;;;;5029376;28;20578;-74
2022/03/17 10:36:19;;;;;;;12.70;9.60;;;9.00;99.90;;;;;;5029577;28;20462;-76
2022/03/17 10:38:47;;;;;;;10.50;9.13;;;9.00;99.90;;;;;;5029485;28;20979;-76
2022/03/17 10:41:14;;;;;;;14.60;10.43;;;9.10;99.90;;;;;;5029399;28;20458;-77
2022/03/17 10:43:42;;;;;;;11.50;8.97;;;9.20;99.90;;;;;;5029088;28;20450;-77
2022/03/17 10:46:12;;;;;;;11.80;9.50;;;9.10;99.90;;;;;;5029230;28;20443;-78
2022/03/17 10:48:57;;;;;;;12.40;10.53;;;8.70;99.90;;;;;;5029181;28;20475;-76
2022/03/17 10:51:35;;;;;;;11.97;10.10;;;8.80;99.90;;;;;;5029432;28;20461;-79
2022/03/17 10:54:05;;;;;;;11.00;8.67;;;8.90;99.90;;;;;;5028958;28;20490;-75
2022/03/17 10:56:32;;;;;;;30.23;22.20;;;9.00;99.90;;;;;;5029304;28;20468;-76
2022/03/17 10:59:00;;;;;;;16.90;12.73;;;9.00;99.90;;;;;;5029404;28;20827;-77
2022/03/17 11:01:42;;;;;;;14.47;11.23;;;8.90;99.90;;;;;;5029381;28;20482;-77
2022/03/17 11:04:11;;;;;;;13.63;11.20;;;8.90;99.90;;;;;;5029111;28;20455;-75
2022/03/17 11:06:40;;;;;;;12.63;11.07;;;8.80;99.90;;;;;;5032643;28;20454;-76
2022/03/17 11:09:09;;;;;;;15.00;11.70;;;8.80;99.90;;;;;;5033381;28;20838;-76
2022/03/17 11:11:38;;;;;;;15.20;11.67;;;8.80;99.90;;;;;;5033315;28;20497;-75
2022/03/17 11:14:06;;;;;;;16.73;12.63;;;8.80;99.90;;;;;;5033393;28;20592;-76
2022/03/17 11:16:38;;;;;;;14.73;11.57;;;8.80;99.90;;;;;;5033285;28;20463;-76
2022/03/17 11:19:12;;;;;;;15.57;12.67;;;8.80;99.90;;;;;;5032947;28;20478;-77
2022/03/17 11:21:48;;;;;;;13.87;11.77;;;8.70;99.90;;;;;;5033134;28;20826;-78
2022/03/17 11:24:19;;;;;;;14.50;11.57;;;8.80;99.90;;;;;;5032512;28;20467;-79
2022/03/17 11:26:47;;;;;;;16.70;10.30;;;8.80;99.90;;;;;;5032548;28;20465;-75
2022/03/17 11:29:17;;;;;;;14.63;10.97;;;8.80;99.90;;;;;;5032660;28;20478;-77
2022/03/17 11:31:59;;;;;;;13.53;10.83;;;8.70;99.90;;;;;;5032893;28;20553;-75
2022/03/17 11:34:45;;;;;;;15.23;11.20;;;8.70;99.90;;;;;;5032558;28;20493;-76
2022/03/17 11:37:27;;;;;;;14.13;10.00;;;8.50;99.90;;;;;;5032777;28;20694;-79
2022/03/17 11:39:59;;;;;;;13.43;10.70;;;8.30;99.90;;;;;;5032422;28;20481;-77
2022/03/17 11:42:40;;;;;;;14.23;10.70;;;8.40;99.90;;;;;;5032279;28;20478;-75
2022/03/17 11:45:37;;;;;;;11.10;9.83;;;8.50;99.90;;;;;;5032844;28;20534;-77
2022/03/17 11:48:13;;;;;;;11.70;10.33;;;8.50;99.90;;;;;;5032549;28;20486;-75
2022/03/17 11:50:44;;;;;;;12.03;9.10;;;8.60;99.90;;;;;;5032544;28;20450;-76
2022/03/17 11:53:24;;;;;;;13.10;8.47;;;8.50;99.90;;;;;;5032257;28;20581;-76
2022/03/17 11:55:54;;;;;;;11.90;8.43;;;8.60;99.90;;;;;;5032641;28;20545;-76
2022/03/17 11:58:42;;;;;;;8.93;7.30;;;8.60;99.90;;;;;;5032120;28;20540;-75
2022/03/17 12:01:12;;;;;;;7.70;6.10;;;8.70;99.90;;;;;;5032397;28;20773;-77
2022/03/17 12:03:54;;;;;;;9.03;6.40;;;8.80;99.90;;;;;;5032235;28;20435;-76
2022/03/17 12:06:22;;;;;;;8.83;6.40;;;8.70;99.90;;;;;;5032269;28;20446;-77
2022/03/17 12:09:02;;;;;;;8.20;5.90;;;8.70;99.90;;;;;;5031948;28;20482;-78
2022/03/17 12:11:31;;;;;;;9.07;6.17;;;8.70;99.90;;;;;;5032030;28;20454;-78
2022/03/17 12:14:24;;;;;;;17.10;13.27;;;8.80;99.90;;;;;;5032175;28;20517;-77
2022/03/17 12:16:54;;;;;;;10.73;8.23;;;8.60;99.90;;;;;;5031072;28;20537;-79
2022/03/17 12:19:37;;;;;;;10.40;6.20;;;8.80;99.90;;;;;;5031901;28;20447;-77
2022/03/17 12:22:16;;;;;;;7.30;6.00;;;8.80;99.90;;;;;;5031976;28;20894;-76
2022/03/17 12:24:47;;;;;;;9.67;6.97;;;8.80;99.90;;;;;;5031247;28;20513;-76
2022/03/17 12:27:18;;;;;;;9.33;6.80;;;8.80;99.90;;;;;;5031884;28;20462;-77
2022/03/17 12:29:46;;;;;;;8.37;6.20;;;8.80;99.90;;;;;;5031795;28;20886;-72
2022/03/17 12:32:16;;;;;;;7.70;5.67;;;8.80;99.90;;;;;;5031847;28;20458;-70
2022/03/17 12:34:45;;;;;;;11.17;8.00;;;8.60;99.90;;;;;;5031940;28;20594;-72
2022/03/17 12:37:13;;;;;;;10.87;7.50;;;8.50;99.90;;;;;;5031635;28;20465;-74
2022/03/17 12:39:41;;;;;;;11.40;7.17;;;8.50;99.90;;;;;;5031110;28;20824;-72
2022/03/17 12:42:19;;;;;;;9.87;7.77;;;8.50;99.90;;;;;;5031330;28;20481;-72
2022/03/17 12:44:57;;;;;;;8.80;6.33;;;8.70;99.90;;;;;;5031385;28;20852;-73
2022/03/17 12:47:27;;;;;;;8.93;6.17;;;8.70;99.90;;;;;;5031517;28;20474;-73
2022/03/17 12:49:55;;;;;;;10.20;7.20;;;8.40;99.90;;;;;;5031152;28;20529;-72
2022/03/17 12:52:25;;;;;;;10.57;7.20;;;8.30;99.90;;;;;;5031604;28;20508;-70
2022/03/17 12:54:54;;;;;;;9.90;7.30;;;8.30;99.90;;;;;;5030995;28;20560;-70
2022/03/17 12:57:24;;;;;;;9.43;6.93;;;8.20;99.90;;;;;;5031263;28;20478;-69
2022/03/17 12:59:52;;;;;;;9.37;7.37;;;8.30;99.90;;;;;;5031295;28;20461;-70
2022/03/17 13:02:20;;;;;;;11.23;8.20;;;8.40;99.90;;;;;;5031180;28;20946;-70
2022/03/17 13:04:49;;;;;;;10.40;7.70;;;8.50;99.90;;;;;;5031196;28;20478;-69
2022/03/17 13:07:15;;;;;;;10.10;7.20;;;8.30;99.90;;;;;;5031185;28;20482;-68